Terminal Aerodrome Forecast
Issued by NWS

Home | Current Version | Previous Version | Graphics & Text | Print | Product List | Glossary On
Versions: 1 2 3 4 5 6 7 8 9 10 11 12 13
000
FTUS43 KGRB 131600 AAB
TAFATW
TAF AMD
KATW 131600Z 1316/1412 34006KT P6SM BKN027
     FM131800 31006KT P6SM SCT030
     FM140000 20004KT P6SM SCT250
     FM140900 21003KT P6SM BKN250=

USA.gov is the U.S. government's official web portal to all federal, state and local government web resources and services.